<?xml version="1.0" encoding="utf-8"?>
<gpx xmlns:xsi="http://www.w3.org/2001/XMLSchema-instance" xmlns:xsd="http://www.w3.org/2001/XMLSchema" version="1.1" creator="Shapelink.com" xmlns="http://www.topografix.com/GPX/1/1" xmlns:gpxtpx="http://www.garmin.com/xmlschemas/TrackPointExtension/v1">
  <metadata>
    <name>Løping 5.99 km, 2012-03-03</name>
    <desc></desc>
    <author><name>Andreas Falk-Larssen</name></author> 
    <time>2012-03-03T16:28:31Z</time>
  </metadata>
  <trk>
    <name>Løping 5.99 km, 2012-03-03</name>
    <trkseg>
      <trkpt lat="63.4194711631" lon="10.4739283627">
        <ele>180.6</ele>
        <time>2012-03-03T16:28:31Z</time>
      </trkpt>
      <trkpt lat="63.4193026031" lon="10.474158865">
        <ele>182.6</ele>
        <time>2012-03-03T16:28:35Z</time>
      </trkpt>
      <trkpt lat="63.4192542396" lon="10.4742096593">
        <ele>181.4</ele>
        <time>2012-03-03T16:28:36Z</time>
      </trkpt>
      <trkpt lat="63.4192255735" lon="10.4742380739">
        <ele>179.6</ele>
        <time>2012-03-03T16:28:37Z</time>
      </trkpt>
      <trkpt lat="63.4190205522" lon="10.4743961566">
        <ele>159.8</ele>
        <time>2012-03-03T16:28:44Z</time>
      </trkpt>
      <trkpt lat="63.4189769663" lon="10.4743963242">
        <ele>143</ele>
        <time>2012-03-03T16:28:48Z</time>
      </trkpt>
      <trkpt lat="63.4189228192" lon="10.4745010141">
        <ele>124.8</ele>
        <time>2012-03-03T16:28:54Z</time>
      </trkpt>
      <trkpt lat="63.418795582" lon="10.4746036086">
        <ele>109.8</ele>
        <time>2012-03-03T16:29:02Z</time>
      </trkpt>
      <trkpt lat="63.4186647405" lon="10.4747002519">
        <ele>93.6</ele>
        <time>2012-03-03T16:29:09Z</time>
      </trkpt>
      <trkpt lat="63.4185541833" lon="10.4747889324">
        <ele>83.8</ele>
        <time>2012-03-03T16:29:15Z</time>
      </trkpt>
      <trkpt lat="63.4183457254" lon="10.4744310253">
        <ele>72.6</ele>
        <time>2012-03-03T16:29:28Z</time>
      </trkpt>
      <trkpt lat="63.4182677737" lon="10.4742428516">
        <ele>70.2</ele>
        <time>2012-03-03T16:29:33Z</time>
      </trkpt>
      <trkpt lat="63.4181547019" lon="10.4739675062">
        <ele>68.6</ele>
        <time>2012-03-03T16:29:39Z</time>
      </trkpt>
      <trkpt lat="63.4179632593" lon="10.4734231856">
        <ele>66.6</ele>
        <time>2012-03-03T16:29:51Z</time>
      </trkpt>
      <trkpt lat="63.4179086093" lon="10.4731841338">
        <ele>65.8</ele>
        <time>2012-03-03T16:29:56Z</time>
      </trkpt>
      <trkpt lat="63.4178677895" lon="10.472997888">
        <ele>65.4</ele>
        <time>2012-03-03T16:30:00Z</time>
      </trkpt>
      <trkpt lat="63.417785563" lon="10.4727451737">
        <ele>65.8</ele>
        <time>2012-03-03T16:30:06Z</time>
      </trkpt>
      <trkpt lat="63.4177649436" lon="10.4727120652">
        <ele>66</ele>
        <time>2012-03-03T16:30:07Z</time>
      </trkpt>
      <trkpt lat="63.4176962958" lon="10.4725383922">
        <ele>66.6</ele>
        <time>2012-03-03T16:30:11Z</time>
      </trkpt>
      <trkpt lat="63.4176116386" lon="10.4721021143">
        <ele>67.8</ele>
        <time>2012-03-03T16:30:19Z</time>
      </trkpt>
      <trkpt lat="63.4175731657" lon="10.4718866157">
        <ele>68.4</ele>
        <time>2012-03-03T16:30:23Z</time>
      </trkpt>
      <trkpt lat="63.4175601738" lon="10.4714865476">
        <ele>70</ele>
        <time>2012-03-03T16:30:29Z</time>
      </trkpt>
      <trkpt lat="63.417536453" lon="10.4711407104">
        <ele>72.6</ele>
        <time>2012-03-03T16:30:34Z</time>
      </trkpt>
      <trkpt lat="63.4175102176" lon="10.4708104636">
        <ele>75.6</ele>
        <time>2012-03-03T16:30:39Z</time>
      </trkpt>
      <trkpt lat="63.4174929509" lon="10.4705081284">
        <ele>79.4</ele>
        <time>2012-03-03T16:30:44Z</time>
      </trkpt>
      <trkpt lat="63.4174473534" lon="10.4701503051">
        <ele>84.6</ele>
        <time>2012-03-03T16:30:50Z</time>
      </trkpt>
      <trkpt lat="63.4173839024" lon="10.4698446172">
        <ele>88.8</ele>
        <time>2012-03-03T16:30:55Z</time>
      </trkpt>
      <trkpt lat="63.4173504586" lon="10.469533984">
        <ele>92.4</ele>
        <time>2012-03-03T16:31:00Z</time>
      </trkpt>
      <trkpt lat="63.4173336948" lon="10.4691706286">
        <ele>96.8</ele>
        <time>2012-03-03T16:31:06Z</time>
      </trkpt>
      <trkpt lat="63.4173032685" lon="10.4688715625">
        <ele>100.6</ele>
        <time>2012-03-03T16:31:11Z</time>
      </trkpt>
      <trkpt lat="63.4172435056" lon="10.4684663814">
        <ele>105.4</ele>
        <time>2012-03-03T16:31:18Z</time>
      </trkpt>
      <trkpt lat="63.4171597704" lon="10.4681238132">
        <ele>109.6</ele>
        <time>2012-03-03T16:31:25Z</time>
      </trkpt>
      <trkpt lat="63.4170487102" lon="10.4678669079">
        <ele>112.6</ele>
        <time>2012-03-03T16:31:31Z</time>
      </trkpt>
      <trkpt lat="63.4169125882" lon="10.4675716974">
        <ele>115.6</ele>
        <time>2012-03-03T16:31:38Z</time>
      </trkpt>
      <trkpt lat="63.4167786454" lon="10.4673163847">
        <ele>118.2</ele>
        <time>2012-03-03T16:31:45Z</time>
      </trkpt>
      <trkpt lat="63.4166948264" lon="10.4671075078">
        <ele>120</ele>
        <time>2012-03-03T16:31:50Z</time>
      </trkpt>
      <trkpt lat="63.4165864484" lon="10.4668682045">
        <ele>121.6</ele>
        <time>2012-03-03T16:31:56Z</time>
      </trkpt>
      <trkpt lat="63.4164293716" lon="10.4666252133">
        <ele>123.6</ele>
        <time>2012-03-03T16:32:04Z</time>
      </trkpt>
      <trkpt lat="63.4162757314" lon="10.4664626044">
        <ele>124.6</ele>
        <time>2012-03-03T16:32:11Z</time>
      </trkpt>
      <trkpt lat="63.4161257792" lon="10.4663114787">
        <ele>125.6</ele>
        <time>2012-03-03T16:32:18Z</time>
      </trkpt>
      <trkpt lat="63.4159900762" lon="10.4661731774">
        <ele>126.4</ele>
        <time>2012-03-03T16:32:24Z</time>
      </trkpt>
      <trkpt lat="63.4158884038" lon="10.46592281">
        <ele>127</ele>
        <time>2012-03-03T16:32:30Z</time>
      </trkpt>
      <trkpt lat="63.4158443988" lon="10.4655661602">
        <ele>127.8</ele>
        <time>2012-03-03T16:32:36Z</time>
      </trkpt>
      <trkpt lat="63.4158198399" lon="10.4651490768">
        <ele>128.8</ele>
        <time>2012-03-03T16:32:43Z</time>
      </trkpt>
      <trkpt lat="63.4158635096" lon="10.4648512679">
        <ele>129</ele>
        <time>2012-03-03T16:32:48Z</time>
      </trkpt>
      <trkpt lat="63.4158822012" lon="10.4647469971">
        <ele>129.2</ele>
        <time>2012-03-03T16:32:50Z</time>
      </trkpt>
      <trkpt lat="63.4158268806" lon="10.4645972125">
        <ele>129.2</ele>
        <time>2012-03-03T16:32:55Z</time>
      </trkpt>
      <trkpt lat="63.415804501" lon="10.4645733241">
        <ele>129.4</ele>
        <time>2012-03-03T16:32:56Z</time>
      </trkpt>
      <trkpt lat="63.4156781019" lon="10.464468718">
        <ele>129.4</ele>
        <time>2012-03-03T16:33:02Z</time>
      </trkpt>
      <trkpt lat="63.4155658683" lon="10.4643703145">
        <ele>129.4</ele>
        <time>2012-03-03T16:33:07Z</time>
      </trkpt>
      <trkpt lat="63.4154022536" lon="10.4643270639">
        <ele>129.4</ele>
        <time>2012-03-03T16:33:14Z</time>
      </trkpt>
      <trkpt lat="63.4151332784" lon="10.4641128225">
        <ele>129.4</ele>
        <time>2012-03-03T16:33:27Z</time>
      </trkpt>
      <trkpt lat="63.4148700029" lon="10.4638017702">
        <ele>129.6</ele>
        <time>2012-03-03T16:33:40Z</time>
      </trkpt>
      <trkpt lat="63.4147468728" lon="10.463651818">
        <ele>129.6</ele>
        <time>2012-03-03T16:33:46Z</time>
      </trkpt>
      <trkpt lat="63.4146316217" lon="10.4634720263">
        <ele>129.6</ele>
        <time>2012-03-03T16:33:52Z</time>
      </trkpt>
      <trkpt lat="63.4145428574" lon="10.4632976828">
        <ele>129.6</ele>
        <time>2012-03-03T16:33:57Z</time>
      </trkpt>
      <trkpt lat="63.414447639" lon="10.4630530151">
        <ele>129.6</ele>
        <time>2012-03-03T16:34:03Z</time>
      </trkpt>
      <trkpt lat="63.4143756385" lon="10.4628302242">
        <ele>129.6</ele>
        <time>2012-03-03T16:34:08Z</time>
      </trkpt>
      <trkpt lat="63.4142112694" lon="10.4622844787">
        <ele>130.6</ele>
        <time>2012-03-03T16:34:20Z</time>
      </trkpt>
      <trkpt lat="63.4141154643" lon="10.4619709118">
        <ele>131</ele>
        <time>2012-03-03T16:34:27Z</time>
      </trkpt>
      <trkpt lat="63.4140158873" lon="10.4615858473">
        <ele>131.2</ele>
        <time>2012-03-03T16:34:34Z</time>
      </trkpt>
      <trkpt lat="63.4139458147" lon="10.4613363182">
        <ele>131.4</ele>
        <time>2012-03-03T16:34:39Z</time>
      </trkpt>
      <trkpt lat="63.4138722216" lon="10.4610954224">
        <ele>131.4</ele>
        <time>2012-03-03T16:34:44Z</time>
      </trkpt>
      <trkpt lat="63.4137873967" lon="10.4608620703">
        <ele>131.4</ele>
        <time>2012-03-03T16:34:49Z</time>
      </trkpt>
      <trkpt lat="63.4137088583" lon="10.4606420454">
        <ele>131.4</ele>
        <time>2012-03-03T16:34:54Z</time>
      </trkpt>
      <trkpt lat="63.4136117959" lon="10.4603829609">
        <ele>131</ele>
        <time>2012-03-03T16:35:00Z</time>
      </trkpt>
      <trkpt lat="63.4135276417" lon="10.4601548894">
        <ele>130.4</ele>
        <time>2012-03-03T16:35:05Z</time>
      </trkpt>
      <trkpt lat="63.4134379553" lon="10.4598861657">
        <ele>129.8</ele>
        <time>2012-03-03T16:35:11Z</time>
      </trkpt>
      <trkpt lat="63.4133763484" lon="10.4595578466">
        <ele>128.6</ele>
        <time>2012-03-03T16:35:17Z</time>
      </trkpt>
      <trkpt lat="63.4133408091" lon="10.4591734527">
        <ele>128</ele>
        <time>2012-03-03T16:35:23Z</time>
      </trkpt>
      <trkpt lat="63.4133308346" lon="10.4589381728">
        <ele>127.8</ele>
        <time>2012-03-03T16:35:27Z</time>
      </trkpt>
      <trkpt lat="63.4133127297" lon="10.458687973">
        <ele>127</ele>
        <time>2012-03-03T16:35:32Z</time>
      </trkpt>
      <trkpt lat="63.4132652044" lon="10.4583467459">
        <ele>126.2</ele>
        <time>2012-03-03T16:35:37Z</time>
      </trkpt>
      <trkpt lat="63.4132041841" lon="10.4581010724">
        <ele>125.8</ele>
        <time>2012-03-03T16:35:42Z</time>
      </trkpt>
      <trkpt lat="63.4131257296" lon="10.4578810475">
        <ele>125.6</ele>
        <time>2012-03-03T16:35:47Z</time>
      </trkpt>
      <trkpt lat="63.413036127" lon="10.4577336937">
        <ele>125.6</ele>
        <time>2012-03-03T16:35:52Z</time>
      </trkpt>
      <trkpt lat="63.4128914555" lon="10.4575760302">
        <ele>125.4</ele>
        <time>2012-03-03T16:35:58Z</time>
      </trkpt>
      <trkpt lat="63.4127751985" lon="10.4574887746">
        <ele>125.4</ele>
        <time>2012-03-03T16:36:04Z</time>
      </trkpt>
      <trkpt lat="63.4126547506" lon="10.4574432609">
        <ele>125.4</ele>
        <time>2012-03-03T16:36:09Z</time>
      </trkpt>
      <trkpt lat="63.4125189638" lon="10.457429766">
        <ele>125.4</ele>
        <time>2012-03-03T16:36:14Z</time>
      </trkpt>
      <trkpt lat="63.4121985238" lon="10.4575036944">
        <ele>126.6</ele>
        <time>2012-03-03T16:36:28Z</time>
      </trkpt>
      <trkpt lat="63.4120871283" lon="10.4575333663">
        <ele>127</ele>
        <time>2012-03-03T16:36:34Z</time>
      </trkpt>
      <trkpt lat="63.4119694465" lon="10.4575559136">
        <ele>127.4</ele>
        <time>2012-03-03T16:36:39Z</time>
      </trkpt>
      <trkpt lat="63.4118800954" lon="10.4575801373">
        <ele>128</ele>
        <time>2012-03-03T16:36:42Z</time>
      </trkpt>
      <trkpt lat="63.4117354238" lon="10.4575881001">
        <ele>128.6</ele>
        <time>2012-03-03T16:36:49Z</time>
      </trkpt>
      <trkpt lat="63.4116155626" lon="10.4575298459">
        <ele>129</ele>
        <time>2012-03-03T16:36:54Z</time>
      </trkpt>
      <trkpt lat="63.4115184164" lon="10.4573648901">
        <ele>129.2</ele>
        <time>2012-03-03T16:36:58Z</time>
      </trkpt>
      <trkpt lat="63.4114226113" lon="10.457099603">
        <ele>130</ele>
        <time>2012-03-03T16:37:04Z</time>
      </trkpt>
      <trkpt lat="63.4113720684" lon="10.456764327">
        <ele>130.8</ele>
        <time>2012-03-03T16:37:10Z</time>
      </trkpt>
      <trkpt lat="63.411323202" lon="10.4563562961">
        <ele>131</ele>
        <time>2012-03-03T16:37:17Z</time>
      </trkpt>
      <trkpt lat="63.4112501956" lon="10.456191005">
        <ele>131.2</ele>
        <time>2012-03-03T16:37:22Z</time>
      </trkpt>
      <trkpt lat="63.4110917777" lon="10.4556289986">
        <ele>131.4</ele>
        <time>2012-03-03T16:37:36Z</time>
      </trkpt>
      <trkpt lat="63.4110810489" lon="10.4554494583">
        <ele>131.4</ele>
        <time>2012-03-03T16:37:39Z</time>
      </trkpt>
      <trkpt lat="63.4110709068" lon="10.4551647252">
        <ele>131.6</ele>
        <time>2012-03-03T16:37:44Z</time>
      </trkpt>
      <trkpt lat="63.4110507902" lon="10.45473926">
        <ele>132.6</ele>
        <time>2012-03-03T16:37:51Z</time>
      </trkpt>
      <trkpt lat="63.4110320148" lon="10.4543790897">
        <ele>133</ele>
        <time>2012-03-03T16:37:57Z</time>
      </trkpt>
      <trkpt lat="63.4110192743" lon="10.4540887407">
        <ele>133.6</ele>
        <time>2012-03-03T16:38:02Z</time>
      </trkpt>
      <trkpt lat="63.4110036001" lon="10.4537321747">
        <ele>134.4</ele>
        <time>2012-03-03T16:38:07Z</time>
      </trkpt>
      <trkpt lat="63.4109896862" lon="10.4534258162">
        <ele>134.8</ele>
        <time>2012-03-03T16:38:12Z</time>
      </trkpt>
      <trkpt lat="63.4109664683" lon="10.4530212219">
        <ele>135.2</ele>
        <time>2012-03-03T16:38:19Z</time>
      </trkpt>
      <trkpt lat="63.4109402329" lon="10.4526193936">
        <ele>135.4</ele>
        <time>2012-03-03T16:38:26Z</time>
      </trkpt>
      <trkpt lat="63.4109113992" lon="10.4522043219">
        <ele>135.4</ele>
        <time>2012-03-03T16:38:32Z</time>
      </trkpt>
      <trkpt lat="63.4108948869" lon="10.4517874901">
        <ele>135.4</ele>
        <time>2012-03-03T16:38:40Z</time>
      </trkpt>
      <trkpt lat="63.4108756085" lon="10.4513787886">
        <ele>135.4</ele>
        <time>2012-03-03T16:38:46Z</time>
      </trkpt>
      <trkpt lat="63.4108746027" lon="10.4510282575">
        <ele>135.4</ele>
        <time>2012-03-03T16:38:52Z</time>
      </trkpt>
      <trkpt lat="63.41086379" lon="10.4506540895">
        <ele>135.4</ele>
        <time>2012-03-03T16:38:58Z</time>
      </trkpt>
      <trkpt lat="63.4108740159" lon="10.4506119286">
        <ele>135.4</ele>
        <time>2012-03-03T16:39:00Z</time>
      </trkpt>
      <trkpt lat="63.4108746865" lon="10.4504322206">
        <ele>135.4</ele>
        <time>2012-03-03T16:39:02Z</time>
      </trkpt>
      <trkpt lat="63.4108755247" lon="10.4500054143">
        <ele>135.4</ele>
        <time>2012-03-03T16:39:10Z</time>
      </trkpt>
      <trkpt lat="63.4108726748" lon="10.4496957031">
        <ele>135.4</ele>
        <time>2012-03-03T16:39:15Z</time>
      </trkpt>
      <trkpt lat="63.4108717528" lon="10.4492682262">
        <ele>135.4</ele>
        <time>2012-03-03T16:39:21Z</time>
      </trkpt>
      <trkpt lat="63.4108720881" lon="10.4488384024">
        <ele>135.4</ele>
        <time>2012-03-03T16:39:28Z</time>
      </trkpt>
      <trkpt lat="63.410867059" lon="10.4486053855">
        <ele>135.4</ele>
        <time>2012-03-03T16:39:32Z</time>
      </trkpt>
      <trkpt lat="63.4108608564" lon="10.4481468118">
        <ele>135.4</ele>
        <time>2012-03-03T16:39:40Z</time>
      </trkpt>
      <trkpt lat="63.4108636224" lon="10.4478260365">
        <ele>135.4</ele>
        <time>2012-03-03T16:39:45Z</time>
      </trkpt>
      <trkpt lat="63.4108760276" lon="10.4475092007">
        <ele>135.2</ele>
        <time>2012-03-03T16:39:50Z</time>
      </trkpt>
      <trkpt lat="63.4109132432" lon="10.4471495333">
        <ele>134.4</ele>
        <time>2012-03-03T16:39:56Z</time>
      </trkpt>
      <trkpt lat="63.4108699088" lon="10.4469093919">
        <ele>134</ele>
        <time>2012-03-03T16:40:01Z</time>
      </trkpt>
      <trkpt lat="63.4107761153" lon="10.4467586853">
        <ele>133.8</ele>
        <time>2012-03-03T16:40:06Z</time>
      </trkpt>
      <trkpt lat="63.410645693" lon="10.4465617107">
        <ele>133.6</ele>
        <time>2012-03-03T16:40:12Z</time>
      </trkpt>
      <trkpt lat="63.4105043741" lon="10.4463436975">
        <ele>132.8</ele>
        <time>2012-03-03T16:40:17Z</time>
      </trkpt>
      <trkpt lat="63.410398846" lon="10.4461644086">
        <ele>132.2</ele>
        <time>2012-03-03T16:40:22Z</time>
      </trkpt>
      <trkpt lat="63.4102936532" lon="10.4460675977">
        <ele>131.8</ele>
        <time>2012-03-03T16:40:27Z</time>
      </trkpt>
      <trkpt lat="63.4102045536" lon="10.4458353352">
        <ele>131.6</ele>
        <time>2012-03-03T16:40:32Z</time>
      </trkpt>
      <trkpt lat="63.4101196449" lon="10.4456716367">
        <ele>131.6</ele>
        <time>2012-03-03T16:40:36Z</time>
      </trkpt>
      <trkpt lat="63.4099881329" lon="10.4454634303">
        <ele>131.4</ele>
        <time>2012-03-03T16:40:42Z</time>
      </trkpt>
      <trkpt lat="63.4099033919" lon="10.4453029169">
        <ele>131.4</ele>
        <time>2012-03-03T16:40:46Z</time>
      </trkpt>
      <trkpt lat="63.4098298827" lon="10.4451249692">
        <ele>131.4</ele>
        <time>2012-03-03T16:40:50Z</time>
      </trkpt>
      <trkpt lat="63.4097295513" lon="10.4449216243">
        <ele>131.4</ele>
        <time>2012-03-03T16:40:55Z</time>
      </trkpt>
      <trkpt lat="63.4096364284" lon="10.4447865081">
        <ele>131.4</ele>
        <time>2012-03-03T16:40:58Z</time>
      </trkpt>
      <trkpt lat="63.4096082652" lon="10.4447637931">
        <ele>131.4</ele>
        <time>2012-03-03T16:41:00Z</time>
      </trkpt>
      <trkpt lat="63.4095236918" lon="10.4446042018">
        <ele>131.8</ele>
        <time>2012-03-03T16:41:04Z</time>
      </trkpt>
      <trkpt lat="63.4094013161" lon="10.444302621">
        <ele>132.8</ele>
        <time>2012-03-03T16:41:10Z</time>
      </trkpt>
      <trkpt lat="63.4092793595" lon="10.4440235037">
        <ele>134.8</ele>
        <time>2012-03-03T16:41:17Z</time>
      </trkpt>
      <trkpt lat="63.4091827162" lon="10.4438499984">
        <ele>136</ele>
        <time>2012-03-03T16:41:22Z</time>
      </trkpt>
      <trkpt lat="63.4090632741" lon="10.4436416244">
        <ele>137.6</ele>
        <time>2012-03-03T16:41:27Z</time>
      </trkpt>
      <trkpt lat="63.4089408983" lon="10.4433561368">
        <ele>138.6</ele>
        <time>2012-03-03T16:41:34Z</time>
      </trkpt>
      <trkpt lat="63.408873424" lon="10.4430749241">
        <ele>139.2</ele>
        <time>2012-03-03T16:41:39Z</time>
      </trkpt>
      <trkpt lat="63.4088547324" lon="10.4427704097">
        <ele>139.4</ele>
        <time>2012-03-03T16:41:44Z</time>
      </trkpt>
      <trkpt lat="63.4088932053" lon="10.4424907895">
        <ele>139.6</ele>
        <time>2012-03-03T16:41:49Z</time>
      </trkpt>
      <trkpt lat="63.4089703188" lon="10.4421949084">
        <ele>138.8</ele>
        <time>2012-03-03T16:41:55Z</time>
      </trkpt>
      <trkpt lat="63.4090682194" lon="10.4418474787">
        <ele>138</ele>
        <time>2012-03-03T16:42:02Z</time>
      </trkpt>
      <trkpt lat="63.4091577381" lon="10.4415244402">
        <ele>137</ele>
        <time>2012-03-03T16:42:07Z</time>
      </trkpt>
      <trkpt lat="63.4092445746" lon="10.4411426447">
        <ele>135.4</ele>
        <time>2012-03-03T16:42:15Z</time>
      </trkpt>
      <trkpt lat="63.4093271363" lon="10.440516852">
        <ele>133.6</ele>
        <time>2012-03-03T16:42:25Z</time>
      </trkpt>
      <trkpt lat="63.4094179123" lon="10.4401059713">
        <ele>132.2</ele>
        <time>2012-03-03T16:42:32Z</time>
      </trkpt>
      <trkpt lat="63.4095230213" lon="10.4399850205">
        <ele>131.2</ele>
        <time>2012-03-03T16:42:36Z</time>
      </trkpt>
      <trkpt lat="63.4096011406" lon="10.4397089207">
        <ele>130.4</ele>
        <time>2012-03-03T16:42:40Z</time>
      </trkpt>
      <trkpt lat="63.4095512683" lon="10.4393606527">
        <ele>129.2</ele>
        <time>2012-03-03T16:42:46Z</time>
      </trkpt>
      <trkpt lat="63.4095456524" lon="10.4390271369">
        <ele>128.4</ele>
        <time>2012-03-03T16:42:52Z</time>
      </trkpt>
      <trkpt lat="63.409584293" lon="10.4386781985">
        <ele>127.8</ele>
        <time>2012-03-03T16:42:57Z</time>
      </trkpt>
      <trkpt lat="63.4096260348" lon="10.4383512205">
        <ele>127.4</ele>
        <time>2012-03-03T16:43:02Z</time>
      </trkpt>
      <trkpt lat="63.4096743984" lon="10.4380534954">
        <ele>127.4</ele>
        <time>2012-03-03T16:43:07Z</time>
      </trkpt>
      <trkpt lat="63.4097476562" lon="10.4376834346">
        <ele>127</ele>
        <time>2012-03-03T16:43:14Z</time>
      </trkpt>
      <trkpt lat="63.4098550284" lon="10.4373586359">
        <ele>126.2</ele>
        <time>2012-03-03T16:43:20Z</time>
      </trkpt>
      <trkpt lat="63.409960305" lon="10.4370565523">
        <ele>125.2</ele>
        <time>2012-03-03T16:43:25Z</time>
      </trkpt>
      <trkpt lat="63.4100256" lon="10.4367663709">
        <ele>124.2</ele>
        <time>2012-03-03T16:43:32Z</time>
      </trkpt>
      <trkpt lat="63.4100613069" lon="10.4365661273">
        <ele>123.8</ele>
        <time>2012-03-03T16:43:36Z</time>
      </trkpt>
      <trkpt lat="63.4101457126" lon="10.4362940508">
        <ele>123.4</ele>
        <time>2012-03-03T16:43:42Z</time>
      </trkpt>
      <trkpt lat="63.4102625563" lon="10.4361142591">
        <ele>123.2</ele>
        <time>2012-03-03T16:43:46Z</time>
      </trkpt>
      <trkpt lat="63.4104179568" lon="10.4359099922">
        <ele>123.2</ele>
        <time>2012-03-03T16:43:52Z</time>
      </trkpt>
      <trkpt lat="63.4105817391" lon="10.4357286917">
        <ele>123.2</ele>
        <time>2012-03-03T16:43:58Z</time>
      </trkpt>
      <trkpt lat="63.4107025223" lon="10.4355614728">
        <ele>123</ele>
        <time>2012-03-03T16:44:04Z</time>
      </trkpt>
      <trkpt lat="63.4108464395" lon="10.4353520929">
        <ele>123</ele>
        <time>2012-03-03T16:44:10Z</time>
      </trkpt>
      <trkpt lat="63.4111654546" lon="10.4349152283">
        <ele>124</ele>
        <time>2012-03-03T16:44:22Z</time>
      </trkpt>
      <trkpt lat="63.4113299913" lon="10.4346745001">
        <ele>124.6</ele>
        <time>2012-03-03T16:44:30Z</time>
      </trkpt>
      <trkpt lat="63.4113577354" lon="10.4346572334">
        <ele>124.6</ele>
        <time>2012-03-03T16:44:31Z</time>
      </trkpt>
      <trkpt lat="63.411541299" lon="10.4344870808">
        <ele>124.8</ele>
        <time>2012-03-03T16:44:37Z</time>
      </trkpt>
      <trkpt lat="63.411716816" lon="10.4342551536">
        <ele>125</ele>
        <time>2012-03-03T16:44:44Z</time>
      </trkpt>
      <trkpt lat="63.411852938" lon="10.4340423372">
        <ele>125</ele>
        <time>2012-03-03T16:44:50Z</time>
      </trkpt>
      <trkpt lat="63.4120121103" lon="10.4338773814">
        <ele>125</ele>
        <time>2012-03-03T16:44:56Z</time>
      </trkpt>
      <trkpt lat="63.412190561" lon="10.4336649002">
        <ele>125</ele>
        <time>2012-03-03T16:45:02Z</time>
      </trkpt>
      <trkpt lat="63.412343363" lon="10.4334853599">
        <ele>125</ele>
        <time>2012-03-03T16:45:09Z</time>
      </trkpt>
      <trkpt lat="63.4124954107" lon="10.4333191469">
        <ele>125</ele>
        <time>2012-03-03T16:45:15Z</time>
      </trkpt>
      <trkpt lat="63.4127850053" lon="10.4329605692">
        <ele>125</ele>
        <time>2012-03-03T16:45:27Z</time>
      </trkpt>
      <trkpt lat="63.4131093849" lon="10.432599896">
        <ele>125</ele>
        <time>2012-03-03T16:45:40Z</time>
      </trkpt>
      <trkpt lat="63.4132832255" lon="10.432408202">
        <ele>125</ele>
        <time>2012-03-03T16:45:47Z</time>
      </trkpt>
      <trkpt lat="63.4134470916" lon="10.4323012489">
        <ele>125</ele>
        <time>2012-03-03T16:45:52Z</time>
      </trkpt>
      <trkpt lat="63.4136480057" lon="10.4322010014">
        <ele>125</ele>
        <time>2012-03-03T16:46:00Z</time>
      </trkpt>
      <trkpt lat="63.413809525" lon="10.4321128238">
        <ele>125</ele>
        <time>2012-03-03T16:46:06Z</time>
      </trkpt>
      <trkpt lat="63.4139668532" lon="10.4320120734">
        <ele>125</ele>
        <time>2012-03-03T16:46:12Z</time>
      </trkpt>
      <trkpt lat="63.414112363" lon="10.4319238958">
        <ele>125</ele>
        <time>2012-03-03T16:46:17Z</time>
      </trkpt>
      <trkpt lat="63.4142422825" lon="10.431875197">
        <ele>125</ele>
        <time>2012-03-03T16:46:22Z</time>
      </trkpt>
      <trkpt lat="63.4144499859" lon="10.431821469">
        <ele>125</ele>
        <time>2012-03-03T16:46:29Z</time>
      </trkpt>
      <trkpt lat="63.4146550072" lon="10.4317789727">
        <ele>125</ele>
        <time>2012-03-03T16:46:37Z</time>
      </trkpt>
      <trkpt lat="63.4148063005" lon="10.4317275079">
        <ele>125</ele>
        <time>2012-03-03T16:46:43Z</time>
      </trkpt>
      <trkpt lat="63.4150002577" lon="10.4316410067">
        <ele>125</ele>
        <time>2012-03-03T16:46:50Z</time>
      </trkpt>
      <trkpt lat="63.4152074582" lon="10.4315674136">
        <ele>125</ele>
        <time>2012-03-03T16:46:57Z</time>
      </trkpt>
      <trkpt lat="63.4153713244" lon="10.4315148591">
        <ele>125</ele>
        <time>2012-03-03T16:47:04Z</time>
      </trkpt>
      <trkpt lat="63.4155522058" lon="10.4314534197">
        <ele>125</ele>
        <time>2012-03-03T16:47:11Z</time>
      </trkpt>
      <trkpt lat="63.4157804449" lon="10.4313461314">
        <ele>125</ele>
        <time>2012-03-03T16:47:19Z</time>
      </trkpt>
      <trkpt lat="63.4159241107" lon="10.4313733726">
        <ele>125</ele>
        <time>2012-03-03T16:47:25Z</time>
      </trkpt>
      <trkpt lat="63.4160293874" lon="10.4315475485">
        <ele>125</ele>
        <time>2012-03-03T16:47:30Z</time>
      </trkpt>
      <trkpt lat="63.4160819419" lon="10.4319959801">
        <ele>125</ele>
        <time>2012-03-03T16:47:37Z</time>
      </trkpt>
      <trkpt lat="63.4161590553" lon="10.4323555636">
        <ele>124.8</ele>
        <time>2012-03-03T16:47:44Z</time>
      </trkpt>
      <trkpt lat="63.4162483226" lon="10.4325748341">
        <ele>124</ele>
        <time>2012-03-03T16:47:49Z</time>
      </trkpt>
      <trkpt lat="63.4163630708" lon="10.4327248702">
        <ele>123.6</ele>
        <time>2012-03-03T16:47:54Z</time>
      </trkpt>
      <trkpt lat="63.4165043058" lon="10.4329035723">
        <ele>123.2</ele>
        <time>2012-03-03T16:48:00Z</time>
      </trkpt>
      <trkpt lat="63.4166484745" lon="10.433075485">
        <ele>122.8</ele>
        <time>2012-03-03T16:48:06Z</time>
      </trkpt>
      <trkpt lat="63.4167870273" lon="10.4332495771">
        <ele>122</ele>
        <time>2012-03-03T16:48:12Z</time>
      </trkpt>
      <trkpt lat="63.416913594" lon="10.4333994455">
        <ele>121.4</ele>
        <time>2012-03-03T16:48:17Z</time>
      </trkpt>
      <trkpt lat="63.4170418371" lon="10.4335563546">
        <ele>121.2</ele>
        <time>2012-03-03T16:48:22Z</time>
      </trkpt>
      <trkpt lat="63.4172133307" lon="10.4337481325">
        <ele>121</ele>
        <time>2012-03-03T16:48:30Z</time>
      </trkpt>
      <trkpt lat="63.4173505424" lon="10.4339151">
        <ele>120.2</ele>
        <time>2012-03-03T16:48:36Z</time>
      </trkpt>
      <trkpt lat="63.41749337" lon="10.4340752781">
        <ele>119.6</ele>
        <time>2012-03-03T16:48:42Z</time>
      </trkpt>
      <trkpt lat="63.4176377063" lon="10.434232774">
        <ele>119.2</ele>
        <time>2012-03-03T16:48:48Z</time>
      </trkpt>
      <trkpt lat="63.4177764268" lon="10.4344051897">
        <ele>119</ele>
        <time>2012-03-03T16:48:54Z</time>
      </trkpt>
      <trkpt lat="63.4178931866" lon="10.4345305829">
        <ele>118</ele>
        <time>2012-03-03T16:48:58Z</time>
      </trkpt>
      <trkpt lat="63.4180524427" lon="10.4347008193">
        <ele>117.4</ele>
        <time>2012-03-03T16:49:05Z</time>
      </trkpt>
      <trkpt lat="63.4182028978" lon="10.4348634281">
        <ele>117</ele>
        <time>2012-03-03T16:49:11Z</time>
      </trkpt>
      <trkpt lat="63.4183674345" lon="10.4350342512">
        <ele>116.8</ele>
        <time>2012-03-03T16:49:17Z</time>
      </trkpt>
      <trkpt lat="63.4185307978" lon="10.4352303039">
        <ele>115.6</ele>
        <time>2012-03-03T16:49:24Z</time>
      </trkpt>
      <trkpt lat="63.4187110924" lon="10.4354429527">
        <ele>114.6</ele>
        <time>2012-03-03T16:49:32Z</time>
      </trkpt>
      <trkpt lat="63.4188816641" lon="10.4356162066">
        <ele>113.6</ele>
        <time>2012-03-03T16:49:39Z</time>
      </trkpt>
      <trkpt lat="63.4190246593" lon="10.4357835093">
        <ele>113</ele>
        <time>2012-03-03T16:49:45Z</time>
      </trkpt>
      <trkpt lat="63.4191648885" lon="10.4359432683">
        <ele>112.2</ele>
        <time>2012-03-03T16:49:51Z</time>
      </trkpt>
      <trkpt lat="63.419310985" lon="10.4361257423">
        <ele>111.4</ele>
        <time>2012-03-03T16:49:57Z</time>
      </trkpt>
      <trkpt lat="63.4194752703" lon="10.4363571665">
        <ele>111</ele>
        <time>2012-03-03T16:50:04Z</time>
      </trkpt>
      <trkpt lat="63.419570321" lon="10.4365744254">
        <ele>110.8</ele>
        <time>2012-03-03T16:50:10Z</time>
      </trkpt>
      <trkpt lat="63.4196739213" lon="10.4368475077">
        <ele>110.2</ele>
        <time>2012-03-03T16:50:16Z</time>
      </trkpt>
      <trkpt lat="63.4197425691" lon="10.4372356735">
        <ele>109.4</ele>
        <time>2012-03-03T16:50:22Z</time>
      </trkpt>
      <trkpt lat="63.4197218658" lon="10.4375403555">
        <ele>108.8</ele>
        <time>2012-03-03T16:50:27Z</time>
      </trkpt>
      <trkpt lat="63.4196751786" lon="10.4379676648">
        <ele>107.6</ele>
        <time>2012-03-03T16:50:34Z</time>
      </trkpt>
      <trkpt lat="63.4196204448" lon="10.4383598539">
        <ele>107</ele>
        <time>2012-03-03T16:50:40Z</time>
      </trkpt>
      <trkpt lat="63.4195631964" lon="10.4386522984">
        <ele>106</ele>
        <time>2012-03-03T16:50:45Z</time>
      </trkpt>
      <trkpt lat="63.4194940457" lon="10.439029903">
        <ele>105.2</ele>
        <time>2012-03-03T16:50:51Z</time>
      </trkpt>
      <trkpt lat="63.41941425" lon="10.4394438012">
        <ele>104.6</ele>
        <time>2012-03-03T16:50:57Z</time>
      </trkpt>
      <trkpt lat="63.4193337" lon="10.439833811">
        <ele>104.4</ele>
        <time>2012-03-03T16:51:03Z</time>
      </trkpt>
      <trkpt lat="63.419238733" lon="10.4402345496">
        <ele>104.2</ele>
        <time>2012-03-03T16:51:09Z</time>
      </trkpt>
      <trkpt lat="63.4191375635" lon="10.4406150041">
        <ele>103.6</ele>
        <time>2012-03-03T16:51:15Z</time>
      </trkpt>
      <trkpt lat="63.4190468714" lon="10.4409442451">
        <ele>103</ele>
        <time>2012-03-03T16:51:21Z</time>
      </trkpt>
      <trkpt lat="63.4189657346" lon="10.4412154834">
        <ele>102.4</ele>
        <time>2012-03-03T16:51:27Z</time>
      </trkpt>
      <trkpt lat="63.4189286027" lon="10.4414769149">
        <ele>102.4</ele>
        <time>2012-03-03T16:51:33Z</time>
      </trkpt>
      <trkpt lat="63.4188312889" lon="10.4418171362">
        <ele>102.2</ele>
        <time>2012-03-03T16:51:39Z</time>
      </trkpt>
      <trkpt lat="63.4187499845" lon="10.4420994386">
        <ele>102.2</ele>
        <time>2012-03-03T16:51:44Z</time>
      </trkpt>
      <trkpt lat="63.4186544308" lon="10.4424046236">
        <ele>102.2</ele>
        <time>2012-03-03T16:51:50Z</time>
      </trkpt>
      <trkpt lat="63.418563571" lon="10.4427077969">
        <ele>101.8</ele>
        <time>2012-03-03T16:51:56Z</time>
      </trkpt>
      <trkpt lat="63.4184567856" lon="10.443084228">
        <ele>100.8</ele>
        <time>2012-03-03T16:52:04Z</time>
      </trkpt>
      <trkpt lat="63.4183670154" lon="10.4434111221">
        <ele>100.4</ele>
        <time>2012-03-03T16:52:11Z</time>
      </trkpt>
      <trkpt lat="63.4182974457" lon="10.4436350027">
        <ele>100.2</ele>
        <time>2012-03-03T16:52:16Z</time>
      </trkpt>
      <trkpt lat="63.4182230144" lon="10.4439448815">
        <ele>100.6</ele>
        <time>2012-03-03T16:52:22Z</time>
      </trkpt>
      <trkpt lat="63.4181598987" lon="10.4442301176">
        <ele>101.4</ele>
        <time>2012-03-03T16:52:27Z</time>
      </trkpt>
      <trkpt lat="63.4180909995" lon="10.4445880247">
        <ele>102.8</ele>
        <time>2012-03-03T16:52:34Z</time>
      </trkpt>
      <trkpt lat="63.4180276323" lon="10.4449331075">
        <ele>103.4</ele>
        <time>2012-03-03T16:52:40Z</time>
      </trkpt>
      <trkpt lat="63.4179759998" lon="10.4452043458">
        <ele>103.8</ele>
        <time>2012-03-03T16:52:45Z</time>
      </trkpt>
      <trkpt lat="63.4179259599" lon="10.4455426393">
        <ele>104</ele>
        <time>2012-03-03T16:52:51Z</time>
      </trkpt>
      <trkpt lat="63.417869382" lon="10.4459093474">
        <ele>104</ele>
        <time>2012-03-03T16:52:57Z</time>
      </trkpt>
      <trkpt lat="63.4178132233" lon="10.4462700206">
        <ele>104.2</ele>
        <time>2012-03-03T16:53:04Z</time>
      </trkpt>
      <trkpt lat="63.4177698889" lon="10.4466191267">
        <ele>104.2</ele>
        <time>2012-03-03T16:53:10Z</time>
      </trkpt>
      <trkpt lat="63.4177234532" lon="10.4470508784">
        <ele>104.2</ele>
        <time>2012-03-03T16:53:17Z</time>
      </trkpt>
      <trkpt lat="63.4177150713" lon="10.4475074405">
        <ele>104.2</ele>
        <time>2012-03-03T16:53:25Z</time>
      </trkpt>
      <trkpt lat="63.417772152" lon="10.4478473265">
        <ele>104.6</ele>
        <time>2012-03-03T16:53:32Z</time>
      </trkpt>
      <trkpt lat="63.4178517801" lon="10.4481100991">
        <ele>105.4</ele>
        <time>2012-03-03T16:53:37Z</time>
      </trkpt>
      <trkpt lat="63.4178731539" lon="10.4484172957">
        <ele>105.8</ele>
        <time>2012-03-03T16:53:42Z</time>
      </trkpt>
      <trkpt lat="63.4178460804" lon="10.4488301043">
        <ele>106</ele>
        <time>2012-03-03T16:53:48Z</time>
      </trkpt>
      <trkpt lat="63.4178410512" lon="10.4492464332">
        <ele>106.2</ele>
        <time>2012-03-03T16:53:54Z</time>
      </trkpt>
      <trkpt lat="63.4178622574" lon="10.4495528755">
        <ele>106.2</ele>
        <time>2012-03-03T16:53:59Z</time>
      </trkpt>
      <trkpt lat="63.41790182" lon="10.4498804402">
        <ele>106.2</ele>
        <time>2012-03-03T16:54:04Z</time>
      </trkpt>
      <trkpt lat="63.4179511894" lon="10.450274138">
        <ele>105.4</ele>
        <time>2012-03-03T16:54:10Z</time>
      </trkpt>
      <trkpt lat="63.4180213459" lon="10.4510545767">
        <ele>104.6</ele>
        <time>2012-03-03T16:54:22Z</time>
      </trkpt>
      <trkpt lat="63.4180826176" lon="10.4516465903">
        <ele>103.2</ele>
        <time>2012-03-03T16:54:31Z</time>
      </trkpt>
      <trkpt lat="63.4181175701" lon="10.4520628355">
        <ele>102.6</ele>
        <time>2012-03-03T16:54:37Z</time>
      </trkpt>
      <trkpt lat="63.4181667719" lon="10.4524812599">
        <ele>101.6</ele>
        <time>2012-03-03T16:54:44Z</time>
      </trkpt>
      <trkpt lat="63.4181987069" lon="10.4528213136">
        <ele>101</ele>
        <time>2012-03-03T16:54:49Z</time>
      </trkpt>
      <trkpt lat="63.4182259481" lon="10.4532991657">
        <ele>100.6</ele>
        <time>2012-03-03T16:54:55Z</time>
      </trkpt>
      <trkpt lat="63.4182489983" lon="10.4538014092">
        <ele>100.4</ele>
        <time>2012-03-03T16:55:00Z</time>
      </trkpt>
      <trkpt lat="63.4182516805" lon="10.453896879">
        <ele>100.2</ele>
        <time>2012-03-03T16:55:01Z</time>
      </trkpt>
      <trkpt lat="63.4182438015" lon="10.4542398664">
        <ele>100.2</ele>
        <time>2012-03-03T16:55:07Z</time>
      </trkpt>
      <trkpt lat="63.4182501718" lon="10.4545708676">
        <ele>100.2</ele>
        <time>2012-03-03T16:55:13Z</time>
      </trkpt>
      <trkpt lat="63.4182433824" lon="10.4549980092">
        <ele>100</ele>
        <time>2012-03-03T16:55:20Z</time>
      </trkpt>
      <trkpt lat="63.4182387724" lon="10.4553364703">
        <ele>100</ele>
        <time>2012-03-03T16:55:25Z</time>
      </trkpt>
      <trkpt lat="63.4182464837" lon="10.4557439145">
        <ele>100</ele>
        <time>2012-03-03T16:55:32Z</time>
      </trkpt>
      <trkpt lat="63.418236174" lon="10.4560416396">
        <ele>100</ele>
        <time>2012-03-03T16:55:37Z</time>
      </trkpt>
      <trkpt lat="63.4182199969" lon="10.4564168972">
        <ele>100</ele>
        <time>2012-03-03T16:55:44Z</time>
      </trkpt>
      <trkpt lat="63.4181951027" lon="10.4567419473">
        <ele>100</ele>
        <time>2012-03-03T16:55:50Z</time>
      </trkpt>
      <trkpt lat="63.418164844" lon="10.4570563524">
        <ele>100</ele>
        <time>2012-03-03T16:55:55Z</time>
      </trkpt>
      <trkpt lat="63.4181285504" lon="10.4574310233">
        <ele>100</ele>
        <time>2012-03-03T16:56:02Z</time>
      </trkpt>
      <trkpt lat="63.4180902451" lon="10.4577711608">
        <ele>100.8</ele>
        <time>2012-03-03T16:56:08Z</time>
      </trkpt>
      <trkpt lat="63.4180537838" lon="10.4581730729">
        <ele>101.4</ele>
        <time>2012-03-03T16:56:15Z</time>
      </trkpt>
      <trkpt lat="63.4180003911" lon="10.4585619093">
        <ele>102.8</ele>
        <time>2012-03-03T16:56:22Z</time>
      </trkpt>
      <trkpt lat="63.4178721481" lon="10.4591060622">
        <ele>105</ele>
        <time>2012-03-03T16:56:33Z</time>
      </trkpt>
      <trkpt lat="63.4177421448" lon="10.4594424279">
        <ele>105.6</ele>
        <time>2012-03-03T16:56:40Z</time>
      </trkpt>
      <trkpt lat="63.4176353594" lon="10.459683156">
        <ele>105.8</ele>
        <time>2012-03-03T16:56:45Z</time>
      </trkpt>
      <trkpt lat="63.417557743" lon="10.4598923683">
        <ele>105.8</ele>
        <time>2012-03-03T16:56:49Z</time>
      </trkpt>
      <trkpt lat="63.4174513767" lon="10.4601009099">
        <ele>106</ele>
        <time>2012-03-03T16:56:54Z</time>
      </trkpt>
      <trkpt lat="63.4173890154" lon="10.460259244">
        <ele>106</ele>
        <time>2012-03-03T16:56:58Z</time>
      </trkpt>
      <trkpt lat="63.41730352" lon="10.4604689592">
        <ele>106</ele>
        <time>2012-03-03T16:57:03Z</time>
      </trkpt>
      <trkpt lat="63.4172262389" lon="10.4606891517">
        <ele>106</ele>
        <time>2012-03-03T16:57:09Z</time>
      </trkpt>
      <trkpt lat="63.4172194495" lon="10.4607248586">
        <ele>106</ele>
        <time>2012-03-03T16:57:10Z</time>
      </trkpt>
      <trkpt lat="63.417277117" lon="10.4609032254">
        <ele>106</ele>
        <time>2012-03-03T16:57:15Z</time>
      </trkpt>
      <trkpt lat="63.4174124847" lon="10.4611910598">
        <ele>106</ele>
        <time>2012-03-03T16:57:22Z</time>
      </trkpt>
      <trkpt lat="63.4175902648" lon="10.4615578518">
        <ele>106.2</ele>
        <time>2012-03-03T16:57:31Z</time>
      </trkpt>
      <trkpt lat="63.4177055159" lon="10.4617751945">
        <ele>106.2</ele>
        <time>2012-03-03T16:57:36Z</time>
      </trkpt>
      <trkpt lat="63.4178464995" lon="10.4620642024">
        <ele>106.2</ele>
        <time>2012-03-03T16:57:43Z</time>
      </trkpt>
      <trkpt lat="63.4179738205" lon="10.4623228678">
        <ele>106.2</ele>
        <time>2012-03-03T16:57:49Z</time>
      </trkpt>
      <trkpt lat="63.4181030694" lon="10.462623778">
        <ele>106.2</ele>
        <time>2012-03-03T16:57:56Z</time>
      </trkpt>
      <trkpt lat="63.4182337432" lon="10.4629318967">
        <ele>106.2</ele>
        <time>2012-03-03T16:58:03Z</time>
      </trkpt>
      <trkpt lat="63.4183617348" lon="10.4632334774">
        <ele>106.2</ele>
        <time>2012-03-03T16:58:10Z</time>
      </trkpt>
      <trkpt lat="63.4184642455" lon="10.4634499819">
        <ele>106.2</ele>
        <time>2012-03-03T16:58:14Z</time>
      </trkpt>
      <trkpt lat="63.4185825141" lon="10.4637516465">
        <ele>106.2</ele>
        <time>2012-03-03T16:58:22Z</time>
      </trkpt>
      <trkpt lat="63.418633057" lon="10.4640492877">
        <ele>106.2</ele>
        <time>2012-03-03T16:58:27Z</time>
      </trkpt>
      <trkpt lat="63.4187032135" lon="10.4643285727">
        <ele>106.2</ele>
        <time>2012-03-03T16:58:32Z</time>
      </trkpt>
      <trkpt lat="63.4188410119" lon="10.464601152">
        <ele>107.2</ele>
        <time>2012-03-03T16:58:39Z</time>
      </trkpt>
      <trkpt lat="63.4189727754" lon="10.4649448099">
        <ele>108.4</ele>
        <time>2012-03-03T16:58:46Z</time>
      </trkpt>
      <trkpt lat="63.419018792" lon="10.4651551956">
        <ele>109.2</ele>
        <time>2012-03-03T16:58:50Z</time>
      </trkpt>
      <trkpt lat="63.4190680776" lon="10.4654370789">
        <ele>109.6</ele>
        <time>2012-03-03T16:58:55Z</time>
      </trkpt>
      <trkpt lat="63.4191708397" lon="10.4656260908">
        <ele>110</ele>
        <time>2012-03-03T16:59:00Z</time>
      </trkpt>
      <trkpt lat="63.4193132481" lon="10.4658245742">
        <ele>110.2</ele>
        <time>2012-03-03T16:59:06Z</time>
      </trkpt>
      <trkpt lat="63.4194223805" lon="10.4661181921">
        <ele>110.4</ele>
        <time>2012-03-03T16:59:12Z</time>
      </trkpt>
      <trkpt lat="63.4195987356" lon="10.4666748341">
        <ele>110.4</ele>
        <time>2012-03-03T16:59:22Z</time>
      </trkpt>
      <trkpt lat="63.4197014977" lon="10.4670431348">
        <ele>110.4</ele>
        <time>2012-03-03T16:59:29Z</time>
      </trkpt>
      <trkpt lat="63.4197890886" lon="10.4673111041">
        <ele>110.6</ele>
        <time>2012-03-03T16:59:35Z</time>
      </trkpt>
      <trkpt lat="63.419901909" lon="10.4676812488">
        <ele>110.6</ele>
        <time>2012-03-03T16:59:42Z</time>
      </trkpt>
      <trkpt lat="63.419990338" lon="10.4679974979">
        <ele>110.6</ele>
        <time>2012-03-03T16:59:48Z</time>
      </trkpt>
      <trkpt lat="63.4200742408" lon="10.4682988272">
        <ele>110.6</ele>
        <time>2012-03-03T16:59:54Z</time>
      </trkpt>
      <trkpt lat="63.4200726483" lon="10.4683579196">
        <ele>110.6</ele>
        <time>2012-03-03T16:59:55Z</time>
      </trkpt>
      <trkpt lat="63.4200159028" lon="10.4685492784">
        <ele>110.6</ele>
        <time>2012-03-03T16:59:59Z</time>
      </trkpt>
      <trkpt lat="63.4199287311" lon="10.4687874082">
        <ele>110.6</ele>
        <time>2012-03-03T17:00:04Z</time>
      </trkpt>
      <trkpt lat="63.4198076126" lon="10.4690405416">
        <ele>110.6</ele>
        <time>2012-03-03T17:00:10Z</time>
      </trkpt>
      <trkpt lat="63.4197280684" lon="10.4692744804">
        <ele>110.6</ele>
        <time>2012-03-03T17:00:15Z</time>
      </trkpt>
      <trkpt lat="63.419759249" lon="10.4696360755">
        <ele>110.6</ele>
        <time>2012-03-03T17:00:22Z</time>
      </trkpt>
      <trkpt lat="63.4198708959" lon="10.4698910529">
        <ele>110.6</ele>
        <time>2012-03-03T17:00:28Z</time>
      </trkpt>
      <trkpt lat="63.419958403" lon="10.4701546637">
        <ele>109.8</ele>
        <time>2012-03-03T17:00:33Z</time>
      </trkpt>
      <trkpt lat="63.4200855564" lon="10.4704645425">
        <ele>109</ele>
        <time>2012-03-03T17:00:40Z</time>
      </trkpt>
      <trkpt lat="63.4201567187" lon="10.470639389">
        <ele>108.8</ele>
        <time>2012-03-03T17:00:44Z</time>
      </trkpt>
      <trkpt lat="63.4202346704" lon="10.4708893372">
        <ele>108.2</ele>
        <time>2012-03-03T17:00:49Z</time>
      </trkpt>
      <trkpt lat="63.4202527753" lon="10.4709365273">
        <ele>108.2</ele>
        <time>2012-03-03T17:00:50Z</time>
      </trkpt>
      <trkpt lat="63.4203604827" lon="10.4712174048">
        <ele>107.2</ele>
        <time>2012-03-03T17:00:56Z</time>
      </trkpt>
      <trkpt lat="63.4204764882" lon="10.4714954324">
        <ele>106</ele>
        <time>2012-03-03T17:01:02Z</time>
      </trkpt>
      <trkpt lat="63.4205161346" lon="10.4717113502">
        <ele>105.4</ele>
        <time>2012-03-03T17:01:06Z</time>
      </trkpt>
      <trkpt lat="63.4204551982" lon="10.4719934849">
        <ele>104.4</ele>
        <time>2012-03-03T17:01:11Z</time>
      </trkpt>
      <trkpt lat="63.4203347503" lon="10.4721808204">
        <ele>103.6</ele>
        <time>2012-03-03T17:01:16Z</time>
      </trkpt>
      <trkpt lat="63.4201472472" lon="10.4724167709">
        <ele>101.8</ele>
        <time>2012-03-03T17:01:23Z</time>
      </trkpt>
      <trkpt lat="63.4200031623" lon="10.4725851632">
        <ele>100.6</ele>
        <time>2012-03-03T17:01:30Z</time>
      </trkpt>
      <trkpt lat="63.4198366978" lon="10.4727769411">
        <ele>99.2</ele>
        <time>2012-03-03T17:01:37Z</time>
      </trkpt>
      <trkpt lat="63.4197984763" lon="10.4728197726">
        <ele>98.8</ele>
        <time>2012-03-03T17:01:40Z</time>
      </trkpt>
    </trkseg>
  </trk>
</gpx>